Time;durP1;ratioP1;P1;durP2;ratioP2;P2;SDS_P1;SDS_P2;PMS_P1;PMS_P2;Temp;Humidity;BMP_temperature;BMP_pressure;BME280_temperature;BME280_humidity;BME280_pressure;Samples;Min_cycle;Max_cycle;Signal;HPM_P1;HPM_P2
2022/09/20 00:02:05;;;;;;;0.00;0.00;;;6.40;99.90;;;;;;5081637;28;20460;-75
2022/09/20 00:04:31;;;;;;;0.10;0.10;;;6.30;99.90;;;;;;5082943;28;20016;-75
2022/09/20 00:06:56;;;;;;;0.10;0.10;;;6.30;99.90;;;;;;5082854;28;20176;-76
2022/09/20 00:09:24;;;;;;;0.00;0.00;;;6.40;99.90;;;;;;5105780;28;20034;-75
2022/09/20 00:12:10;;;;;;;0.00;0.00;;;4.90;99.90;;;;;;5106514;28;20020;-75
2022/09/20 00:14:36;;;;;;;0.00;0.00;;;6.40;99.90;;;;;;5106559;28;20031;-75
2022/09/20 00:17:02;;;;;;;0.00;0.00;;;6.40;99.90;;;;;;5085863;28;20012;-75
2022/09/20 00:19:51;;;;;;;0.00;0.00;;;6.30;99.90;;;;;;5105663;28;20429;-75
2022/09/20 00:22:23;;;;;;;0.00;0.00;;;6.30;99.90;;;;;;5106381;28;20024;-76
2022/09/20 00:24:55;;;;;;;0.10;0.10;;;6.40;99.90;;;;;;5084525;28;20032;-74
2022/09/20 00:27:24;;;;;;;0.00;0.00;;;6.40;99.90;;;;;;5107232;28;20016;-75
2022/09/20 00:29:49;;;;;;;0.00;0.00;;;6.30;99.90;;;;;;5110132;28;20084;-75
2022/09/20 00:32:15;;;;;;;0.00;0.00;;;6.40;99.90;;;;;;5104080;28;20020;-75
2022/09/20 00:37:26;;;;;;;0.00;0.00;;;6.30;99.90;;;;;;5097792;28;20035;-75
2022/09/20 00:39:52;;;;;;;0.00;0.00;;;6.30;99.90;;;;;;5087554;28;20112;-75
2022/09/20 00:42:18;;;;;;;0.00;0.00;;;6.40;99.90;;;;;;5101798;28;20025;-75
2022/09/20 00:45:22;;;;;;;0.00;0.00;;;6.30;99.90;;;;;;5100355;28;20038;-75
2022/09/20 00:48:33;;;;;;;0.00;0.00;;;6.30;99.90;;;;;;5085334;28;20528;-75
2022/09/20 00:51:08;;;;;;;0.00;0.00;;;6.30;99.90;;;;;;5104791;28;20032;-74
2022/09/20 00:54:02;;;;;;;0.00;0.00;;;6.30;99.90;;;;;;5102950;28;20023;-75
2022/09/20 00:56:37;;;;;;;0.10;0.10;;;6.30;99.90;;;;;;5107334;28;20036;-75
2022/09/20 00:59:56;;;;;;;0.00;0.00;;;6.20;99.90;;;;;;5107834;28;20324;-75
2022/09/20 01:03:05;;;;;;;0.00;0.00;;;6.10;99.90;;;;;;5109364;28;20012;-74
2022/09/20 01:05:32;;;;;;;0.00;0.00;;;6.10;99.90;;;;;;5091382;28;20106;-75
2022/09/20 01:07:58;;;;;;;0.47;0.47;;;6.40;99.90;;;;;;5073482;28;20024;-76
2022/09/20 01:10:24;;;;;;;0.00;0.00;;;6.10;99.90;;;;;;5071740;28;20071;-76
2022/09/20 01:12:57;;;;;;;0.00;0.00;;;6.20;99.90;;;;;;5105997;28;20016;-75
2022/09/20 01:15:28;;;;;;;0.05;0.05;;;6.00;99.90;;;;;;5110750;28;20028;-75
2022/09/20 01:18:00;;;;;;;0.00;0.00;;;6.00;99.90;;;;;;5108770;28;20028;-75
2022/09/20 01:21:13;;;;;;;0.73;0.73;;;6.00;99.90;;;;;;5114038;28;20116;-75
2022/09/20 01:24:19;;;;;;;0.00;0.00;;;6.00;99.90;;;;;;5116784;28;20028;-75
2022/09/20 01:27:53;;;;;;;0.00;0.00;;;6.10;99.90;;;;;;5113694;28;20055;-76
2022/09/20 01:30:24;;;;;;;0.03;0.03;;;6.10;99.90;;;;;;5016551;28;20026;-75
2022/09/20 01:33:22;;;;;;;0.00;0.00;;;6.10;99.90;;;;;;5008549;28;20061;-75
2022/09/20 01:36:11;;;;;;;0.10;0.10;;;6.00;99.90;;;;;;5011693;28;20006;-75
2022/09/20 01:39:23;;;;;;;0.00;0.00;;;6.00;99.90;;;;;;5009801;28;20031;-76
2022/09/20 01:42:19;;;;;;;0.00;0.00;;;5.90;99.90;;;;;;4939081;29;20074;-75
2022/09/20 01:45:17;;;;;;;0.00;0.00;;;5.80;99.90;;;;;;4953002;29;20043;-75
2022/09/20 01:48:24;;;;;;;0.03;0.03;;;5.90;99.90;;;;;;4956314;29;20034;-75
2022/09/20 01:51:30;;;;;;;0.00;0.00;;;5.70;99.90;;;;;;4956522;29;20011;-75
2022/09/20 01:54:33;;;;;;;0.00;0.00;;;5.80;99.90;;;;;;4901554;29;20029;-75
2022/09/20 01:57:40;;;;;;;0.00;0.00;;;4.50;99.90;;;;;;4899752;29;20057;-74
2022/09/20 02:00:43;;;;;;;0.03;0.03;;;5.80;99.90;;;;;;4827160;29;20038;-75
2022/09/20 02:03:42;;;;;;;0.00;0.00;;;5.80;99.90;;;;;;4800009;29;20050;-76
2022/09/20 02:06:36;;;;;;;0.00;0.00;;;5.70;99.90;;;;;;4859619;29;20040;-75
2022/09/20 02:09:25;;;;;;;0.00;0.00;;;5.80;99.90;;;;;;4853041;29;20049;-75
2022/09/20 02:12:09;;;;;;;0.00;0.00;;;5.70;99.90;;;;;;4856647;29;20102;-76
2022/09/20 02:14:50;;;;;;;0.03;0.03;;;5.70;99.90;;;;;;4856184;29;20061;-75
2022/09/20 02:17:36;;;;;;;0.00;0.00;;;5.60;99.90;;;;;;4863114;29;20040;-75
2022/09/20 02:20:56;;;;;;;0.00;0.00;;;5.60;99.90;;;;;;4897134;29;20055;-75
2022/09/20 02:23:34;;;;;;;0.10;0.10;;;5.60;99.90;;;;;;4837836;29;20080;-75
2022/09/20 02:26:33;;;;;;;0.00;0.00;;;5.60;99.90;;;;;;4837236;29;20046;-76
2022/09/20 02:29:07;;;;;;;0.00;0.00;;;5.60;99.90;;;;;;4831067;29;20038;-76
2022/09/20 02:32:00;;;;;;;0.00;0.00;;;5.60;99.90;;;;;;4903352;29;20044;-76
2022/09/20 02:34:40;;;;;;;0.00;0.00;;;5.60;99.90;;;;;;4915663;29;20040;-76
2022/09/20 02:37:14;;;;;;;0.00;0.00;;;5.60;99.90;;;;;;4944509;28;20041;-75
2022/09/20 02:39:59;;;;;;;;;;;5.50;99.90;;;;;;4982327;28;20034;-75
2022/09/20 02:42:50;;;;;;;0.00;0.00;;;5.50;99.90;;;;;;4982997;28;20550;-75
2022/09/20 02:45:33;;;;;;;0.00;0.00;;;5.50;99.90;;;;;;4983948;28;20209;-75
2022/09/20 02:48:03;;;;;;;0.00;0.00;;;5.50;99.90;;;;;;4984508;28;20038;-75
2022/09/20 02:50:50;;;;;;;0.10;0.10;;;5.50;99.90;;;;;;4985798;28;20093;-75
2022/09/20 02:53:36;;;;;;;0.00;0.00;;;5.40;99.90;;;;;;5004813;28;20040;-75
2022/09/20 02:56:31;;;;;;;0.00;0.00;;;5.50;99.90;;;;;;5067751;28;20028;-75
2022/09/20 02:59:23;;;;;;;0.05;0.05;;;5.40;99.90;;;;;;5072937;28;20162;-76
2022/09/20 03:02:00;;;;;;;1.85;1.75;;;5.50;99.90;;;;;;5074471;28;20337;-76
2022/09/20 03:04:44;;;;;;;0.00;0.00;;;5.60;99.90;;;;;;5072277;28;20078;-75
2022/09/20 03:07:31;;;;;;;0.00;0.00;;;5.60;99.90;;;;;;5066274;28;20360;-75
2022/09/20 03:10:23;;;;;;;0.00;0.00;;;5.60;99.90;;;;;;5066305;28;20028;-75
2022/09/20 03:12:57;;;;;;;0.00;0.00;;;5.60;99.90;;;;;;5065130;28;20115;-75
2022/09/20 03:15:38;;;;;;;0.00;0.00;;;5.50;99.90;;;;;;5065119;28;20491;-76
2022/09/20 03:18:13;;;;;;;0.00;0.00;;;5.50;99.90;;;;;;5049571;28;20025;-75
2022/09/20 03:20:57;;;;;;;0.00;0.00;;;5.50;99.90;;;;;;5082921;28;20544;-75
2022/09/20 03:23:41;;;;;;;;;;;5.40;99.90;;;;;;5086056;28;20013;-76
2022/09/20 03:27:03;;;;;;;0.00;0.00;;;5.40;99.90;;;;;;5084510;28;19957;-76
2022/09/20 03:29:47;;;;;;;0.00;0.00;;;5.30;99.90;;;;;;4980708;28;20269;-75
2022/09/20 03:32:33;;;;;;;0.00;0.00;;;5.30;99.90;;;;;;4985182;28;20484;-75
2022/09/20 03:35:19;;;;;;;0.10;0.10;;;5.30;99.90;;;;;;4986293;28;20030;-75
2022/09/20 03:37:59;;;;;;;0.52;0.52;;;5.30;99.90;;;;;;4983574;28;20191;-75
2022/09/20 03:40:28;;;;;;;0.03;0.03;;;5.20;99.90;;;;;;4983011;28;20058;-75
2022/09/20 03:43:03;;;;;;;0.00;0.00;;;5.10;99.90;;;;;;4983989;28;20373;-76
2022/09/20 03:45:53;;;;;;;0.00;0.00;;;5.10;99.90;;;;;;4981736;28;20302;-76
2022/09/20 03:48:22;;;;;;;0.00;0.00;;;5.20;99.90;;;;;;4978951;28;20034;-75
2022/09/20 03:51:09;;;;;;;0.00;0.00;;;5.00;99.90;;;;;;4978708;28;20097;-75
2022/09/20 03:53:39;;;;;;;0.00;0.00;;;5.10;99.90;;;;;;4982158;28;20035;-75
2022/09/20 03:56:17;;;;;;;0.08;0.08;;;5.10;99.90;;;;;;4981714;28;20034;-75
2022/09/20 03:59:02;;;;;;;0.00;0.00;;;5.20;99.90;;;;;;4985130;28;20026;-75
2022/09/20 04:01:46;;;;;;;0.00;0.00;;;5.10;99.90;;;;;;4982326;28;20034;-76
2022/09/20 04:04:11;;;;;;;;;;;5.20;99.90;;;;;;4982290;28;20590;-75
2022/09/20 04:06:37;;;;;;;0.00;0.00;;;5.30;99.90;;;;;;5044429;28;20010;-75
2022/09/20 04:09:18;;;;;;;0.00;0.00;;;5.30;99.90;;;;;;5084105;28;20111;-75
2022/09/20 04:12:26;;;;;;;0.25;0.25;;;5.30;99.90;;;;;;5084175;28;20595;-75
2022/09/20 04:15:11;;;;;;;0.00;0.00;;;5.20;99.90;;;;;;5082169;28;20110;-76
2022/09/20 04:17:48;;;;;;;0.00;0.00;;;5.20;99.90;;;;;;5082212;28;20012;-75
2022/09/20 04:20:47;;;;;;;0.00;0.00;;;5.20;99.90;;;;;;5083269;28;20040;-75
2022/09/20 04:23:35;;;;;;;0.00;0.00;;;5.20;99.90;;;;;;5082930;28;20040;-75
2022/09/20 04:26:02;;;;;;;0.00;0.00;;;5.20;99.90;;;;;;5085921;28;20024;-75
2022/09/20 04:28:51;;;;;;;0.00;0.00;;;5.20;99.90;;;;;;5083013;28;20212;-75
2022/09/20 04:31:41;;;;;;;0.00;0.00;;;5.20;99.90;;;;;;5083857;28;20042;-75
2022/09/20 04:36:27;;;;;;;0.00;0.00;;;5.10;99.90;;;;;;5065405;28;20537;-75
2022/09/20 04:37:31;;;;;;;0.00;0.00;;;5.10;99.90;;;;;;5082048;28;20020;-75
2022/09/20 04:40:42;;;;;;;0.00;0.00;;;5.10;99.90;;;;;;5081999;28;20027;-75
2022/09/20 04:43:20;;;;;;;0.00;0.00;;;5.10;99.90;;;;;;5027450;28;20502;-75
2022/09/20 04:46:25;;;;;;;0.00;0.00;;;5.00;99.90;;;;;;5081832;28;20039;-76
2022/09/20 04:48:56;;;;;;;;;;;5.00;99.90;;;;;;5083911;28;20060;-75
2022/09/20 04:51:28;;;;;;;0.00;0.00;;;5.00;99.90;;;;;;5082442;28;19908;-75
2022/09/20 04:54:25;;;;;;;0.00;0.00;;;5.00;99.90;;;;;;5085572;28;20081;-75
2022/09/20 04:57:22;;;;;;;0.00;0.00;;;5.00;99.90;;;;;;5069142;28;20024;-76
2022/09/20 05:00:07;;;;;;;0.00;0.00;;;5.30;99.90;;;;;;5085533;28;20051;-76
2022/09/20 05:02:54;;;;;;;0.00;0.00;;;5.10;99.90;;;;;;5087638;28;20109;-76
2022/09/20 05:05:32;;;;;;;0.00;0.00;;;5.00;99.90;;;;;;5089185;28;20063;-75
2022/09/20 05:08:13;;;;;;;0.00;0.00;;;5.00;99.90;;;;;;5092569;28;20024;-75
2022/09/20 05:10:48;;;;;;;0.30;0.30;;;5.00;99.90;;;;;;5092899;28;20024;-76
2022/09/20 05:13:51;;;;;;;0.00;0.00;;;5.00;99.90;;;;;;5075457;28;20043;-75
2022/09/20 05:16:45;;;;;;;0.00;0.00;;;5.00;99.90;;;;;;5092042;28;20020;-76
2022/09/20 05:19:18;;;;;;;;;;;5.00;99.90;;;;;;5089685;28;20400;-75
2022/09/20 05:21:58;;;;;;;0.00;0.00;;;5.00;99.90;;;;;;5083671;28;19916;-75
2022/09/20 05:24:56;;;;;;;0.00;0.00;;;5.00;99.90;;;;;;5088037;28;20020;-76
2022/09/20 05:27:42;;;;;;;0.00;0.00;;;5.10;99.90;;;;;;5087358;28;20074;-75
2022/09/20 05:30:18;;;;;;;0.00;0.00;;;5.00;99.90;;;;;;5086970;28;20012;-77
2022/09/20 05:32:55;;;;;;;0.65;0.65;;;5.10;99.90;;;;;;5084999;28;20024;-75
2022/09/20 05:35:53;;;;;;;0.00;0.00;;;5.10;99.90;;;;;;5084708;28;20095;-76
2022/09/20 05:38:35;;;;;;;0.00;0.00;;;5.10;99.90;;;;;;5081239;28;20032;-75
2022/09/20 05:41:12;;;;;;;0.00;0.00;;;5.20;99.90;;;;;;5068017;28;20024;-75
2022/09/20 05:44:16;;;;;;;0.00;0.00;;;5.30;99.90;;;;;;5077495;28;20016;-77
2022/09/20 05:47:03;;;;;;;0.00;0.00;;;5.30;99.90;;;;;;5072530;28;20273;-77
2022/09/20 05:49:54;;;;;;;0.00;0.00;;;5.30;99.90;;;;;;5073085;28;20020;-78
2022/09/20 05:52:32;;;;;;;0.00;0.00;;;5.30;99.90;;;;;;5097220;28;20051;-78
2022/09/20 05:55:19;;;;;;;0.00;0.00;;;5.50;99.90;;;;;;5095262;28;20031;-78
2022/09/20 05:57:55;;;;;;;0.00;0.00;;;5.50;99.90;;;;;;5076835;28;20100;-78
2022/09/20 06:00:26;;;;;;;0.00;0.00;;;5.50;99.90;;;;;;5090792;28;20280;-74
2022/09/20 06:03:09;;;;;;;0.00;0.00;;;5.50;99.90;;;;;;5067579;28;20047;-74
2022/09/20 06:06:12;;;;;;;0.00;0.00;;;5.50;99.90;;;;;;5082797;28;20107;-78
2022/09/20 06:09:01;;;;;;;0.00;0.00;;;5.60;99.90;;;;;;5085429;28;20097;-77
2022/09/20 06:11:47;;;;;;;0.00;0.00;;;5.60;99.90;;;;;;5083708;28;20020;-75
2022/09/20 06:14:37;;;;;;;0.00;0.00;;;5.60;99.90;;;;;;5085272;28;20047;-77
2022/09/20 06:17:27;;;;;;;0.10;0.10;;;5.80;99.90;;;;;;5083572;28;20021;-77
2022/09/20 06:20:27;;;;;;;0.00;0.00;;;5.80;99.90;;;;;;5086043;28;20052;-78
2022/09/20 06:22:55;;;;;;;0.00;0.00;;;5.80;99.90;;;;;;5087322;28;20032;-78
2022/09/20 06:25:54;;;;;;;0.00;0.00;;;6.00;99.90;;;;;;5084092;28;20332;-77
2022/09/20 06:28:41;;;;;;;0.00;0.00;;;6.00;99.90;;;;;;5085958;28;20413;-77
2022/09/20 06:31:09;;;;;;;0.00;0.00;;;6.10;99.90;;;;;;5081968;28;20031;-77
2022/09/20 06:33:49;;;;;;;0.05;0.05;;;6.30;99.90;;;;;;5066049;28;20293;-77
2022/09/20 06:43:02;;;;;;;0.08;0.08;;;6.40;99.90;;;;;;5082107;28;20627;-77
2022/09/20 06:45:29;;;;;;;0.00;0.00;;;7.50;99.90;;;;;;5079335;28;20101;-77
2022/09/20 06:47:55;;;;;;;0.00;0.00;;;6.80;99.90;;;;;;5083418;28;20506;-77
2022/09/20 06:50:21;;;;;;;0.10;0.10;;;6.90;99.90;;;;;;5083596;28;20016;-77
2022/09/20 06:52:48;;;;;;;0.00;0.00;;;7.00;99.90;;;;;;5083372;28;20114;-76
2022/09/20 06:55:27;;;;;;;0.00;0.00;;;7.00;99.90;;;;;;5083300;28;20016;-77
2022/09/20 06:57:53;;;;;;;0.10;0.10;;;7.20;99.90;;;;;;5066810;28;20080;-77
2022/09/20 07:00:19;;;;;;;0.00;0.00;;;7.30;99.90;;;;;;5084607;28;20036;-77
2022/09/20 07:02:45;;;;;;;0.00;0.00;;;7.90;99.90;;;;;;5082654;28;20562;-77
2022/09/20 07:05:16;;;;;;;0.00;0.00;;;7.30;99.90;;;;;;5083794;28;20039;-77
2022/09/20 07:07:43;;;;;;;0.10;0.10;;;7.40;99.90;;;;;;5083026;28;20021;-77
2022/09/20 07:10:10;;;;;;;0.00;0.00;;;7.30;99.90;;;;;;5081236;28;20024;-77
2022/09/20 07:12:40;;;;;;;0.10;0.10;;;7.40;99.90;;;;;;5081904;28;20293;-77
2022/09/20 07:15:11;;;;;;;0.10;0.10;;;7.30;99.90;;;;;;5065272;28;20077;-77
2022/09/20 07:17:36;;;;;;;0.10;0.10;;;7.30;99.90;;;;;;5083287;28;20111;-77
2022/09/20 07:20:02;;;;;;;0.05;0.05;;;7.30;99.90;;;;;;5084581;28;20614;-77
2022/09/20 07:22:28;;;;;;;0.10;0.10;;;7.40;99.90;;;;;;5066148;28;20027;-77
2022/09/20 07:24:54;;;;;;;0.20;0.20;;;7.60;99.90;;;;;;5083488;28;20024;-77
2022/09/20 07:27:20;;;;;;;0.10;0.10;;;7.80;99.90;;;;;;5084111;28;20322;-77
2022/09/20 07:29:47;;;;;;;0.10;0.10;;;7.90;99.90;;;;;;5083676;28;20105;-77
2022/09/20 07:32:16;;;;;;;0.47;0.47;;;5.10;99.90;;;;;;5067450;28;20019;-77
2022/09/20 07:34:42;;;;;;;0.10;0.10;;;8.20;99.90;;;;;;5093366;28;20039;-76
2022/09/20 07:37:08;;;;;;;0.10;0.10;;;8.30;99.90;;;;;;5092875;28;20078;-77
2022/09/20 07:39:34;;;;;;;0.00;0.00;;;8.90;99.90;;;;;;5085758;28;20478;-76
2022/09/20 07:42:04;;;;;;;0.00;0.00;;;8.50;99.90;;;;;;5079813;28;20289;-77
2022/09/20 07:44:30;;;;;;;0.03;0.03;;;8.70;99.90;;;;;;5061666;28;20548;-77
2022/09/20 07:46:59;;;;;;;0.10;0.10;;;8.60;99.90;;;;;;5080269;28;20032;-76
2022/09/20 07:49:28;;;;;;;0.10;0.10;;;8.30;99.90;;;;;;5060581;28;20032;-76
2022/09/20 07:51:56;;;;;;;0.00;0.00;;;8.20;99.90;;;;;;5062415;28;20032;-77
2022/09/20 07:54:23;;;;;;;0.10;0.10;;;8.40;99.90;;;;;;5080896;28;20044;-76
2022/09/20 07:56:52;;;;;;;0.10;0.10;;;8.30;99.90;;;;;;5061438;28;20200;-76
2022/09/20 07:59:17;;;;;;;0.00;0.00;;;8.40;99.90;;;;;;5079618;28;20028;-76
2022/09/20 08:01:43;;;;;;;0.10;0.10;;;8.70;99.90;;;;;;5079740;28;20039;-76
2022/09/20 08:04:11;;;;;;;0.10;0.10;;;9.00;99.90;;;;;;5079127;28;20028;-76
2022/09/20 08:06:38;;;;;;;0.30;0.30;;;9.00;99.90;;;;;;5078615;28;20056;-77
2022/09/20 08:09:05;;;;;;;0.10;0.10;;;9.10;99.90;;;;;;5078967;28;20020;-76
2022/09/20 08:11:31;;;;;;;0.20;0.20;;;9.00;99.90;;;;;;5079908;28;20038;-76
2022/09/20 08:13:59;;;;;;;0.10;0.10;;;9.10;99.90;;;;;;5080912;28;20093;-77
2022/09/20 08:16:27;;;;;;;0.10;0.10;;;9.20;99.90;;;;;;5079268;28;20012;-77
2022/09/20 08:18:59;;;;;;;0.10;0.10;;;9.40;99.90;;;;;;5083047;28;20044;-78
2022/09/20 08:21:27;;;;;;;13.75;13.02;;;9.50;99.90;;;;;;5065819;28;20034;-76
2022/09/20 08:23:53;;;;;;;0.10;0.10;;;9.80;99.90;;;;;;5079647;28;20062;-77
2022/09/20 08:26:23;;;;;;;0.10;0.10;;;10.10;99.90;;;;;;5062108;28;20064;-77
2022/09/20 08:28:52;;;;;;;0.10;0.10;;;10.30;99.90;;;;;;5069440;28;20430;-77
2022/09/20 08:31:26;;;;;;;0.20;0.20;;;10.70;99.90;;;;;;5063359;28;20027;-77
2022/09/20 08:33:55;;;;;;;0.10;0.10;;;10.40;99.90;;;;;;5079949;28;20103;-77
2022/09/20 08:36:23;;;;;;;0.20;0.20;;;10.20;99.90;;;;;;5082947;28;20050;-76
2022/09/20 08:38:50;;;;;;;0.20;0.20;;;10.50;99.90;;;;;;5062957;28;20518;-77
2022/09/20 08:41:44;;;;;;;0.10;0.10;;;8.40;99.90;;;;;;5080259;28;20232;-77
2022/09/20 08:44:31;;;;;;;0.25;0.25;;;10.30;99.90;;;;;;5083733;28;20182;-77
2022/09/20 08:47:21;;;;;;;0.40;0.40;;;10.20;99.90;;;;;;5064102;28;20039;-77
2022/09/20 08:49:49;;;;;;;0.13;0.13;;;10.40;99.90;;;;;;5063976;28;20028;-77
2022/09/20 08:52:18;;;;;;;0.10;0.10;;;10.40;99.90;;;;;;5063239;28;20111;-77
2022/09/20 08:54:45;;;;;;;0.10;0.10;;;;;;;;;;5068154;28;20031;-76
2022/09/20 08:57:19;;;;;;;0.10;0.10;;;10.20;99.90;;;;;;5091529;28;20509;-77
2022/09/20 08:59:45;;;;;;;0.15;0.15;;;10.20;99.90;;;;;;5065285;28;20054;-76
2022/09/20 09:02:18;;;;;;;0.10;0.10;;;10.20;99.90;;;;;;5081817;28;20021;-76
2022/09/20 09:04:45;;;;;;;0.20;0.20;;;10.30;99.90;;;;;;5068647;28;20028;-76
2022/09/20 09:07:19;;;;;;;0.10;0.10;;;10.40;99.90;;;;;;5083456;28;20035;-76
2022/09/20 09:09:46;;;;;;;0.10;0.10;;;10.60;99.90;;;;;;5081984;28;20020;-77
2022/09/20 09:12:24;;;;;;;0.10;0.10;;;10.90;99.90;;;;;;5080456;28;20420;-77
2022/09/20 09:15:21;;;;;;;0.10;0.10;;;10.80;99.90;;;;;;5088578;28;20016;-77
2022/09/20 09:17:50;;;;;;;0.15;0.15;;;11.50;99.90;;;;;;5073401;28;20052;-78
2022/09/20 09:20:20;;;;;;;0.15;0.15;;;11.40;99.90;;;;;;5072023;28;20124;-77
2022/09/20 09:22:47;;;;;;;0.10;0.10;;;11.50;99.90;;;;;;5071641;28;20028;-77
2022/09/20 09:25:31;;;;;;;0.10;0.10;;;11.80;99.90;;;;;;5081264;28;20094;-76
2022/09/20 09:28:07;;;;;;;0.20;0.20;;;11.80;99.90;;;;;;5058691;28;20028;-77
2022/09/20 09:30:46;;;;;;;0.10;0.10;;;11.90;99.90;;;;;;5060676;28;20561;-78
2022/09/20 09:33:25;;;;;;;0.10;0.10;;;11.90;99.90;;;;;;5076787;28;20285;-75
2022/09/20 09:36:16;;;;;;;0.10;0.10;;;12.30;99.90;;;;;;5077466;28;20032;-76
2022/09/20 09:38:44;;;;;;;0.10;0.10;;;12.30;99.90;;;;;;5059081;28;20331;-78
2022/09/20 09:41:32;;;;;;;0.20;0.20;;;12.60;99.90;;;;;;5077596;28;20020;-80
2022/09/20 09:44:17;;;;;;;0.10;0.10;;;12.70;99.90;;;;;;5080042;28;20407;-77
2022/09/20 09:46:43;;;;;;;0.10;0.10;;;13.00;99.90;;;;;;5079541;28;20047;-77
2022/09/20 09:49:16;;;;;;;0.10;0.10;;;13.10;99.90;;;;;;5080280;28;20205;-77
2022/09/20 09:52:01;;;;;;;0.10;0.10;;;13.40;99.90;;;;;;5061579;28;20442;-78
2022/09/20 09:54:37;;;;;;;0.10;0.10;;;13.50;99.90;;;;;;5062115;28;20020;-78
2022/09/20 09:57:33;;;;;;;0.10;0.10;;;13.60;99.90;;;;;;5079909;28;20091;-80
2022/09/20 10:00:09;;;;;;;0.10;0.10;;;15.10;99.90;;;;;;5080481;28;20296;-85
2022/09/20 10:03:00;;;;;;;0.10;0.10;;;13.70;99.90;;;;;;5079827;28;20343;-77
2022/09/20 10:05:59;;;;;;;0.10;0.10;;;13.60;99.90;;;;;;5080176;28;20043;-78
2022/09/20 10:08:54;;;;;;;0.10;0.10;;;14.70;99.90;;;;;;5079555;28;20024;-78
2022/09/20 10:11:25;;;;;;;0.10;0.10;;;13.60;99.90;;;;;;5080802;28;20024;-77
2022/09/20 10:13:50;;;;;;;0.10;0.10;;;13.40;99.90;;;;;;5063536;28;20043;-76
2022/09/20 10:16:31;;;;;;;0.10;0.10;;;13.30;99.90;;;;;;5080077;28;20418;-76
2022/09/20 10:19:00;;;;;;;1.55;1.08;;;13.30;99.90;;;;;;5079282;28;20101;-77
2022/09/20 10:21:56;;;;;;;0.10;0.10;;;13.60;99.90;;;;;;5079500;28;20030;-77
2022/09/20 10:24:22;;;;;;;0.10;0.10;;;13.60;99.90;;;;;;5080172;28;20434;-86
2022/09/20 10:27:15;;;;;;;0.10;0.10;;;13.70;99.90;;;;;;5080529;28;20106;-82
2022/09/20 10:29:56;;;;;;;0.10;0.10;;;13.80;99.90;;;;;;5080633;28;20324;-79
2022/09/20 10:32:26;;;;;;;0.57;0.57;;;13.70;99.90;;;;;;5061770;28;20028;-77
2022/09/20 10:35:13;;;;;;;0.10;0.10;;;13.80;99.90;;;;;;5079453;28;20012;-77
2022/09/20 10:38:18;;;;;;;0.15;0.15;;;13.70;99.90;;;;;;5079477;28;20054;-79
2022/09/20 10:44:19;;;;;;;0.10;0.10;;;13.90;99.90;;;;;;5078335;28;20043;-77
2022/09/20 10:47:00;;;;;;;0.10;0.10;;;14.30;99.90;;;;;;5073847;28;20063;-79
2022/09/20 10:49:59;;;;;;;5.28;5.05;;;14.40;99.90;;;;;;5079575;28;20121;-78
2022/09/20 10:53:03;;;;;;;0.10;0.10;;;14.10;99.90;;;;;;4976335;28;20481;-78
2022/09/20 10:55:49;;;;;;;1.00;1.00;;;14.30;99.90;;;;;;4976671;28;20533;-78
2022/09/20 10:58:51;;;;;;;0.10;0.10;;;14.40;99.90;;;;;;4976435;28;20022;-78
2022/09/20 11:01:37;;;;;;;0.10;0.10;;;14.30;99.90;;;;;;4976723;28;20497;-78
2022/09/20 11:04:26;;;;;;;0.10;0.10;;;14.50;99.90;;;;;;4977303;28;20034;-83
2022/09/20 11:07:08;;;;;;;0.10;0.10;;;13.40;99.90;;;;;;4976434;28;20034;-79
2022/09/20 11:09:40;;;;;;;0.10;0.10;;;14.40;99.90;;;;;;4976383;28;20038;-78
2022/09/20 11:12:15;;;;;;;0.10;0.10;;;14.50;99.90;;;;;;4976351;28;20560;-80
2022/09/20 11:15:03;;;;;;;0.40;0.40;;;14.70;99.90;;;;;;4976029;28;20117;-76
2022/09/20 11:17:48;;;;;;;0.10;0.10;;;14.60;99.90;;;;;;4976327;28;20069;-80
2022/09/20 11:20:46;;;;;;;0.17;0.17;;;14.80;99.90;;;;;;4976247;28;20250;-76
2022/09/20 11:23:28;;;;;;;0.10;0.10;;;15.10;99.90;;;;;;4918048;29;20361;-76
2022/09/20 11:26:01;;;;;;;0.65;0.65;;;15.20;99.40;;;;;;4917708;29;20391;-78
2022/09/20 11:28:39;;;;;;;0.63;0.63;;;15.20;99.60;;;;;;4929539;28;20097;-76
2022/09/20 11:31:28;;;;;;;0.30;0.30;;;15.30;99.00;;;;;;4995482;28;20536;-76
2022/09/20 11:34:04;;;;;;;0.10;0.10;;;15.40;99.10;;;;;;4995194;28;20055;-76
2022/09/20 11:36:35;;;;;;;0.10;0.10;;;15.70;99.70;;;;;;4995004;28;20049;-74
2022/09/20 11:39:10;;;;;;;0.10;0.10;;;16.10;99.00;;;;;;4995905;28;20049;-78
2022/09/20 11:41:36;;;;;;;0.10;0.10;;;16.30;97.90;;;;;;4978954;28;20026;-79
2022/09/20 11:44:06;;;;;;;0.10;0.10;;;16.30;97.20;;;;;;4995525;28;20036;-75
2022/09/20 11:46:51;;;;;;;0.10;0.10;;;16.70;96.90;;;;;;4994750;28;20120;-75
2022/09/20 11:49:26;;;;;;;0.20;0.20;;;17.00;96.70;;;;;;4995200;28;20448;-82
2022/09/20 11:52:02;;;;;;;0.10;0.10;;;17.30;96.70;;;;;;4995697;28;20026;-75
2022/09/20 11:55:01;;;;;;;0.10;0.10;;;17.30;96.00;;;;;;4995144;28;20465;-78
2022/09/20 11:57:27;;;;;;;0.10;0.10;;;16.40;95.40;;;;;;4997778;28;20304;-76
2022/09/20 12:00:01;;;;;;;0.68;0.68;;;17.30;96.40;;;;;;5050403;28;20134;-75
2022/09/20 12:02:45;;;;;;;0.10;0.10;;;17.50;96.50;;;;;;5065161;28;20126;-80
2022/09/20 12:05:36;;;;;;;0.10;0.10;;;17.60;96.30;;;;;;5078347;28;20066;-82
2022/09/20 12:08:07;;;;;;;1.15;1.08;;;17.80;94.90;;;;;;5066213;28;20521;-78
2022/09/20 12:10:38;;;;;;;0.10;0.10;;;17.60;95.30;;;;;;5078997;28;20028;-78
2022/09/20 12:13:23;;;;;;;0.30;0.30;;;17.60;95.30;;;;;;5077984;28;20034;-78
2022/09/20 12:16:07;;;;;;;0.10;0.10;;;17.50;95.90;;;;;;5059606;28;20090;-77
2022/09/20 12:18:52;;;;;;;0.10;0.10;;;17.70;94.80;;;;;;5056786;28;20079;-78
2022/09/20 12:21:19;;;;;;;0.13;0.13;;;17.60;95.10;;;;;;5058004;28;20105;-80
2022/09/20 12:23:57;;;;;;;0.10;0.10;;;18.00;95.10;;;;;;5057676;28;20400;-78
2022/09/20 12:26:25;;;;;;;0.10;0.10;;;18.10;94.90;;;;;;5057536;28;20387;-78
2022/09/20 12:28:57;;;;;;;2.72;0.75;;;18.40;94.00;;;;;;5056195;28;20233;-82
2022/09/20 12:31:32;;;;;;;0.10;0.10;;;18.80;93.20;;;;;;5057670;28;20108;-79
2022/09/20 12:34:14;;;;;;;0.10;0.10;;;18.90;93.20;;;;;;5057327;28;20491;-79
2022/09/20 12:37:04;;;;;;;0.10;0.10;;;19.20;92.60;;;;;;5057460;28;20390;-78
2022/09/20 12:39:33;;;;;;;0.40;0.40;;;19.30;92.30;;;;;;5056794;28;20082;-78
2022/09/20 12:42:11;;;;;;;0.32;0.32;;;18.90;91.50;;;;;;5059700;28;20277;-79
2022/09/20 12:44:42;;;;;;;0.10;0.10;;;19.70;91.70;;;;;;5060069;28;20060;-78
2022/09/20 12:47:11;;;;;;;0.10;0.10;;;19.90;91.30;;;;;;5060162;28;20040;-78
2022/09/20 12:52:59;;;;;;;0.10;0.10;;;20.40;90.90;;;;;;5058178;28;20047;-78
2022/09/20 12:55:50;;;;;;;0.38;0.38;;;19.80;90.80;;;;;;5057289;28;20286;-78
2022/09/20 12:58:37;;;;;;;0.10;0.10;;;19.70;90.10;;;;;;5057388;28;20573;-77
2022/09/20 13:01:03;;;;;;;0.10;0.10;;;19.90;90.70;;;;;;5057237;28;20533;-79
2022/09/20 13:03:40;;;;;;;0.10;0.10;;;19.90;91.10;;;;;;5057321;28;20127;-79
2022/09/20 13:06:13;;;;;;;0.10;0.10;;;20.40;89.90;;;;;;5057327;28;20036;-79
2022/09/20 13:08:47;;;;;;;0.03;0.03;;;20.50;89.10;;;;;;5058996;28;20032;-81
2022/09/20 13:11:18;;;;;;;;;;;20.10;90.30;;;;;;5057370;28;20142;-81
2022/09/20 13:14:05;;;;;;;0.10;0.10;;;21.00;89.80;;;;;;5057793;28;19912;-83
2022/09/20 13:16:52;;;;;;;0.10;0.10;;;20.50;89.20;;;;;;5060266;28;20051;-78
2022/09/20 13:19:19;;;;;;;2.75;2.65;;;20.50;87.50;;;;;;5059183;28;20040;-81
2022/09/20 13:22:00;;;;;;;0.10;0.10;;;20.60;87.00;;;;;;5060649;28;20383;-78
2022/09/20 13:24:40;;;;;;;0.10;0.10;;;20.60;85.20;;;;;;5064106;28;20086;-80
2022/09/20 13:27:18;;;;;;;0.10;0.10;;;20.40;82.10;;;;;;5063538;28;20090;-81
2022/09/20 13:29:44;;;;;;;0.10;0.10;;;21.30;80.60;;;;;;5061227;28;20017;-78
2022/09/20 13:32:30;;;;;;;0.00;0.00;;;21.60;80.60;;;;;;5061878;28;20557;-78
2022/09/20 13:35:13;;;;;;;0.10;0.10;;;21.60;80.40;;;;;;5060942;28;20233;-78
2022/09/20 13:37:51;;;;;;;0.00;0.00;;;21.70;80.60;;;;;;5061007;28;20031;-87
2022/09/20 13:40:30;;;;;;;0.10;0.10;;;21.80;76.00;;;;;;5060348;28;20116;-78
2022/09/20 13:42:58;;;;;;;0.10;0.10;;;22.10;72.90;;;;;;5060016;28;20103;-81
2022/09/20 13:45:25;;;;;;;0.03;0.03;;;22.40;71.00;;;;;;5059938;28;20083;-77
2022/09/20 13:47:53;;;;;;;0.10;0.10;;;21.20;69.40;;;;;;5060388;28;20569;-77
2022/09/20 13:50:26;;;;;;;0.10;0.10;;;22.00;68.50;;;;;;5059801;28;20162;-77
2022/09/20 13:52:53;;;;;;;0.00;0.00;;;21.40;66.80;;;;;;5060306;28;20036;-78
2022/09/20 13:55:37;;;;;;;0.08;0.08;;;22.60;68.10;;;;;;5062588;28;20028;-78
2022/09/20 13:58:15;;;;;;;0.00;0.00;;;22.70;65.80;;;;;;5060309;28;20112;-78
2022/09/20 14:00:53;;;;;;;0.20;0.20;;;23.20;64.90;;;;;;5061929;28;20037;-78
2022/09/20 14:03:20;;;;;;;0.00;0.00;;;23.60;64.20;;;;;;5061970;28;20039;-80
2022/09/20 14:05:52;;;;;;;0.10;0.10;;;23.70;63.80;;;;;;5060218;28;20055;-78
2022/09/20 14:08:25;;;;;;;0.00;0.00;;;23.60;62.60;;;;;;5061172;28;20017;-75
2022/09/20 14:11:17;;;;;;;0.10;0.10;;;24.50;65.50;;;;;;5060121;28;20359;-76
2022/09/20 14:13:51;;;;;;;0.00;0.00;;;23.30;63.70;;;;;;5059780;28;20056;-80
2022/09/20 14:16:19;;;;;;;0.10;0.10;;;23.10;63.80;;;;;;5061561;28;20024;-76
2022/09/20 14:18:47;;;;;;;0.10;0.10;;;23.50;62.20;;;;;;5059717;28;20036;-77